Santa Nikolas — V7TV6 — position and weather

sailwx.info

Track history (hours):
 
Tides and Currents Weather Stations Pressure Air Temp Water Temp Dewpoint Dewpoint Depression Visibility Wind Speed Wind Dir Waves Ship Positions

Santa Nikolas

Last reported at 2017-Jan-12 21:32 UTC. Time now 2017-Feb-19 18:51 UTC.
Position N 02°18' E 101°50'.
Warning: this ship's position is 37 days out of date.

Length 190 m; draft 7.7 m.

Type: Cargo ship. MMSI: 538003892.

Date/timePositionNaut miles runAvg speedWind from/ knotsBaromVisibWave heightAir tempDewpointWater temp
2017-Jan-12 21:32N 02°18' E 101°50'1311.6
2017-Jan-12 20:24N 02°10' E 102°00'1112.7
2017-Jan-12 19:33N 02°03' E 102°09'1412.9
2017-Jan-12 18:26N 01°55' E 102°20'1112.7
2017-Jan-12 17:33N 01°50' E 102°30'1312.2
2017-Jan-12 16:30N 01°44' E 102°42'1111.0
2017-Jan-12 15:32N 01°39' E 102°51'1010.5
2017-Jan-12 14:33N 01°33' E 102°60'1010.2
2017-Jan-12 13:33N 01°27' E 103°08'41 8.0
2017-Jan-12 08:23N 01°09' E 103°45'910.2
2017-Jan-12 07:30N 01°13' E 103°53'  
Track history (hours):
 
Tides and Currents Weather Stations Pressure Air Temp Water Temp Dewpoint Dewpoint Depression Visibility Wind Speed Wind Dir Waves Ship Positions

Santa Nikolas

Last reported at 2017-Jan-12 21:32 UTC. Time now 2017-Feb-19 18:51 UTC.
Position N 02°18' E 101°50'.
Warning: this ship's position is 37 days out of date.

Length 190 m; draft 7.7 m.

Type: Cargo ship. MMSI: 538003892.

Date/timePositionNaut miles runAvg speedWind from/ knotsBaromVisibWave heightAir tempDewpointWater temp
2017-Jan-12 21:32N 02°18' E 101°50'1311.6
2017-Jan-12 20:24N 02°10' E 102°00'1112.7
2017-Jan-12 19:33N 02°03' E 102°09'1412.9
2017-Jan-12 18:26N 01°55' E 102°20'1112.7
2017-Jan-12 17:33N 01°50' E 102°30'1312.2
2017-Jan-12 16:30N 01°44' E 102°42'1111.0
2017-Jan-12 15:32N 01°39' E 102°51'1010.5
2017-Jan-12 14:33N 01°33' E 102°60'1010.2
2017-Jan-12 13:33N 01°27' E 103°08'41 8.0
2017-Jan-12 08:23N 01°09' E 103°45'910.2
2017-Jan-12 07:30N 01°13' E 103°53'  

Dump ship's entire track history